Decoded Metar for LFRI (LA ROCHE-SUR-YON in FRANCE) (IATA:EDM) | Meteo·Mobile Aviation Weather
aviador You're here:

LFRI Decoded Metar

LA ROCHE-SUR-YON in FRANCE
Report Time2019-02-23 00:30:00
UTC Time2019-02-23 00:48:34
Flight Rules vfr VFR
Wind090° at 08 kt
W.Decomp.*RWY 10: 7.9 kt HW 1.1 kt LCW
W.Rank090° ranks 34
Current wind is above 090° avg. (6.1)
Visibility9999 m
Phenomena:N/A
Clouds:N/A
Expected CloudBase > 1,200 ft AGL from Temp-Dew spread
CeilingNone
Temp08°C (ISA -6)
Dew Point05°C (82% RH)
AAT4.0°C
QNH1030 hPa
Density Alt-925 ft
Elevation299 ft
Report Wrong Elevation
Raw Report
METAR LFRI 230030Z AUTO 09008KT CAVOK 08/05 Q1030=

Extra information for LFRI:More info

Metar Taf Metar & Taf Last 4 Metars F.Rules Stats Wind Profile Meteogram Temp Stats Airport Information Weather charts Add Link Nearby VenuesMetar ALERT Operation Metar Decoded Social comments